createdAt,value
2016-11-19T15:15:37.661Z,696
2016-11-19T15:16:37.618Z,632
2016-11-19T15:17:37.612Z,576
2016-11-19T15:18:37.608Z,524
2016-11-19T15:19:37.609Z,476
2016-11-19T15:20:37.594Z,460
2016-11-19T15:21:37.608Z,432
2016-11-19T15:22:37.583Z,400
2016-11-19T15:23:37.577Z,356
2016-11-19T15:24:37.595Z,332
2016-11-19T15:25:37.573Z,312
2016-11-19T15:26:37.572Z,292
2016-11-19T15:27:37.597Z,260
2016-11-19T15:28:37.864Z,232
2016-11-19T15:29:37.614Z,212
2016-11-19T15:30:37.601Z,188
2016-11-19T15:31:37.575Z,176
2016-11-19T15:32:37.543Z,160
2016-11-19T15:33:37.565Z,152
2016-11-19T15:34:37.531Z,132
2016-11-19T15:35:37.527Z,124
2016-11-19T15:36:37.527Z,116
2016-11-19T15:37:37.834Z,104
2016-11-19T15:38:37.514Z,92
2016-11-19T15:39:37.516Z,84
2016-11-19T15:40:37.511Z,76
2016-11-19T15:41:37.515Z,68
2016-11-19T15:42:37.905Z,64
2016-11-19T15:43:37.493Z,52
2016-11-19T15:44:37.499Z,44
2016-11-19T15:45:38.686Z,40
2016-11-19T15:46:37.487Z,36
2016-11-19T15:47:37.476Z,40
2016-11-19T15:48:37.468Z,32
2016-11-19T15:49:37.466Z,32
2016-11-19T15:50:37.466Z,28
2016-11-19T15:51:37.465Z,28
2016-11-19T15:52:37.455Z,24
2016-11-19T15:53:37.765Z,20
2016-11-19T15:54:37.446Z,16
2016-11-19T15:55:37.453Z,16
2016-11-19T15:56:37.448Z,16
2016-11-19T15:57:37.437Z,8
2016-11-19T15:58:37.448Z,8
2016-11-19T15:59:37.423Z,8
2016-11-19T16:00:38.473Z,4
2016-11-19T16:01:37.417Z,8
2016-11-19T16:02:37.693Z,4
2016-11-19T16:03:37.412Z,4
2016-11-19T16:04:39.176Z,4
2016-11-19T16:05:38.605Z,0
2016-11-19T16:06:37.398Z,4
2016-11-19T16:07:37.398Z,4
2016-11-19T16:08:37.400Z,4
2016-11-19T16:09:37.624Z,0
2016-11-19T16:10:37.388Z,0
2016-11-19T16:11:37.405Z,0
2016-11-19T16:12:37.391Z,0
2016-11-19T16:13:37.366Z,0
2016-11-19T16:14:37.380Z,0
2016-11-19T16:15:37.605Z,0
2016-11-19T16:16:37.355Z,0
2016-11-19T16:17:37.658Z,0
2016-11-19T16:18:37.333Z,0
2016-11-19T16:19:37.334Z,0
2016-11-19T16:20:37.325Z,0
2016-11-19T16:21:37.335Z,0
2016-11-19T16:22:37.325Z,0
2016-11-19T16:23:37.326Z,0
2016-11-19T16:24:37.330Z,0
2016-11-19T16:25:37.305Z,0
2016-11-19T16:26:37.295Z,0
2016-11-19T16:27:37.604Z,0
2016-11-19T16:28:37.286Z,0
2016-11-19T16:29:37.281Z,0
2016-11-19T16:30:37.329Z,0
2016-11-19T16:31:37.283Z,0
2016-11-19T16:32:37.264Z,0
2016-11-19T16:33:37.272Z,0
2016-11-19T16:34:37.266Z,0
2016-11-19T16:35:37.262Z,0
2016-11-19T16:36:37.249Z,0
2016-11-19T16:37:37.560Z,0
2016-11-19T16:38:37.235Z,0
2016-11-19T16:39:37.248Z,0
2016-11-19T16:40:37.219Z,0
2016-11-19T16:41:37.218Z,0
2016-11-19T16:42:37.209Z,0
2016-11-19T16:43:37.206Z,0
2016-11-19T16:44:37.207Z,0
2016-11-19T16:45:37.446Z,0
2016-11-19T16:46:37.182Z,0
2016-11-19T16:47:37.180Z,0
2016-11-19T16:48:37.234Z,0
2016-11-19T16:49:37.494Z,0
2016-11-19T16:50:37.167Z,0
2016-11-19T16:51:37.170Z,0
2016-11-19T16:52:37.167Z,0
2016-11-19T16:53:37.166Z,0
2016-11-19T16:54:37.143Z,0
2016-11-19T16:55:37.162Z,0
2016-11-19T16:56:37.143Z,0
2016-11-19T16:57:37.129Z,0
2016-11-19T16:58:37.126Z,0
2016-11-19T16:59:37.126Z,0
2016-11-19T17:00:37.219Z,0
2016-11-19T17:01:37.148Z,0
2016-11-19T17:02:37.102Z,0
2016-11-19T17:03:37.457Z,0
2016-11-19T17:04:37.090Z,0
2016-11-19T17:05:37.344Z,0
2016-11-19T17:06:37.079Z,0
2016-11-19T17:07:37.085Z,0
2016-11-19T17:08:37.072Z,0
2016-11-19T17:09:37.069Z,0
2016-11-19T17:10:37.054Z,0
2016-11-19T17:11:37.060Z,0
2016-11-19T17:12:37.054Z,0
2016-11-19T17:13:37.050Z,0
2016-11-19T17:14:37.034Z,0
2016-11-19T17:15:37.026Z,0
2016-11-19T17:16:37.019Z,0
2016-11-19T17:17:37.051Z,0
2016-11-19T17:18:37.017Z,0
2016-11-19T17:19:37.018Z,0
2016-11-19T17:20:37.016Z,0
2016-11-19T17:21:37.024Z,0
2016-11-19T17:22:36.986Z,0
2016-11-19T17:23:36.986Z,0
2016-11-19T17:24:37.223Z,0
2016-11-19T17:25:36.978Z,0
2016-11-19T17:26:36.963Z,0
2016-11-19T17:27:36.964Z,0
2016-11-19T17:28:36.960Z,0
2016-11-19T17:29:36.963Z,0
2016-11-19T17:30:36.948Z,0
2016-11-19T17:31:36.942Z,0
2016-11-19T17:32:36.932Z,0
2016-11-19T17:33:36.940Z,0
2016-11-19T17:35:03.032Z,0
2016-11-19T17:35:36.914Z,0
2016-11-19T17:36:36.917Z,0
2016-11-19T17:37:36.906Z,0
2016-11-19T17:38:36.891Z,0
2016-11-19T17:39:36.881Z,0
2016-11-19T17:40:36.888Z,0
2016-11-19T17:41:36.883Z,0
2016-11-19T17:42:36.891Z,0
2016-11-19T17:43:36.882Z,0
2016-11-19T17:44:36.885Z,0
2016-11-19T17:45:36.846Z,0
2016-11-19T17:46:36.846Z,0
2016-11-19T17:47:36.841Z,0
2016-11-19T17:48:36.827Z,0
2016-11-19T17:49:36.838Z,0
2016-11-19T17:50:36.825Z,0
2016-11-19T17:51:36.818Z,0
2016-11-19T17:52:36.810Z,0
2016-11-19T17:53:36.802Z,0
2016-11-19T17:54:36.802Z,0
2016-11-19T17:55:36.795Z,0
2016-11-19T17:56:36.788Z,0
2016-11-19T17:57:36.784Z,0
2016-11-19T17:58:36.779Z,0
2016-11-19T17:59:36.764Z,0
2016-11-19T18:00:36.767Z,0
2016-11-19T18:01:36.745Z,0
2016-11-19T18:02:36.746Z,0
2016-11-19T18:03:36.744Z,0
2016-11-19T18:04:36.740Z,0
2016-11-19T18:05:36.735Z,0
2016-11-19T18:06:36.725Z,0
2016-11-19T18:07:37.027Z,0
2016-11-19T18:08:36.710Z,0
2016-11-19T18:09:37.024Z,0
2016-11-19T18:10:36.933Z,0
2016-11-19T18:11:36.683Z,0
2016-11-19T18:12:36.682Z,0
2016-11-19T18:13:36.679Z,0
2016-11-19T18:14:36.671Z,0
2016-11-19T18:15:36.671Z,0
2016-11-19T18:16:36.648Z,0
2016-11-19T18:17:36.646Z,0
2016-11-19T18:18:36.643Z,0
2016-11-19T18:19:36.628Z,0
2016-11-19T18:20:37.038Z,0
2016-11-19T18:21:36.613Z,0
2016-11-19T18:22:36.611Z,0
2016-11-19T18:23:36.600Z,0
2016-11-19T18:24:36.599Z,0
2016-11-19T18:25:36.845Z,0
2016-11-19T18:26:36.594Z,0
2016-11-19T18:27:36.583Z,0
2016-11-19T18:28:36.651Z,0
2016-11-19T18:29:36.566Z,0
2016-11-19T18:30:36.569Z,0
2016-11-19T18:31:36.567Z,0
2016-11-19T18:32:36.565Z,0
2016-11-19T18:33:36.564Z,0
2016-11-19T18:34:36.571Z,0
2016-11-19T18:35:36.521Z,0
2016-11-19T18:36:36.523Z,0
2016-11-19T18:37:36.521Z,0
2016-11-19T18:38:36.509Z,0
2016-11-19T18:39:36.493Z,0
2016-11-19T18:40:36.601Z,0
2016-11-19T18:41:36.482Z,0
2016-11-19T18:42:36.483Z,0
2016-11-19T18:43:36.463Z,0
2016-11-19T18:44:36.471Z,0
2016-11-19T18:45:36.766Z,0
2016-11-19T18:46:36.465Z,0
2016-11-19T18:47:36.444Z,0
2016-11-19T18:48:36.437Z,0
2016-11-19T18:49:36.436Z,0
2016-11-19T18:50:36.429Z,0
2016-11-19T18:51:36.414Z,0
2016-11-19T18:52:36.404Z,0
2016-11-19T18:53:36.411Z,0
2016-11-19T18:54:36.399Z,0
2016-11-19T18:55:36.402Z,0
2016-11-19T18:56:36.400Z,0
2016-11-19T18:57:36.374Z,0
2016-11-19T18:58:36.575Z,0
2016-11-19T18:59:36.371Z,0
2016-11-19T19:00:36.351Z,0
2016-11-19T19:01:36.403Z,0
2016-11-19T19:02:36.330Z,0
2016-11-19T19:03:36.332Z,0
2016-11-19T19:04:36.326Z,0
2016-11-19T19:05:36.311Z,0
2016-11-19T19:06:36.308Z,0
2016-11-19T19:07:36.300Z,0
2016-11-19T19:08:36.302Z,0
2016-11-19T19:09:36.300Z,0
2016-11-19T19:10:36.278Z,0
2016-11-19T19:11:36.272Z,0
2016-11-19T19:12:36.269Z,0
2016-11-19T19:13:36.260Z,0
2016-11-19T19:14:36.252Z,0
2016-11-19T19:15:36.243Z,0
2016-11-19T19:16:36.542Z,0
2016-11-19T19:17:36.232Z,0
2016-11-19T19:18:36.219Z,0
2016-11-19T19:19:36.221Z,0
2016-11-19T19:20:36.210Z,0
2016-11-19T19:21:36.212Z,0
2016-11-19T19:22:36.212Z,0
2016-11-19T19:23:36.210Z,0
2016-11-19T19:24:36.179Z,0
2016-11-19T19:25:36.179Z,0
2016-11-19T19:26:36.172Z,0
2016-11-19T19:27:36.160Z,0
2016-11-19T19:28:36.157Z,0
2016-11-19T19:29:36.149Z,0
2016-11-19T19:30:36.149Z,0
2016-11-19T19:31:37.021Z,0
2016-11-19T19:32:36.133Z,0
2016-11-19T19:33:36.130Z,0
2016-11-19T19:34:36.149Z,0
2016-11-19T19:35:36.113Z,0
2016-11-19T19:36:36.099Z,0
2016-11-19T19:37:36.412Z,0
2016-11-19T19:38:36.087Z,0
2016-11-19T19:39:36.083Z,0
2016-11-19T19:40:36.075Z,0
2016-11-19T19:41:36.071Z,0
2016-11-19T19:42:36.086Z,0
2016-11-19T19:43:36.088Z,0
2016-11-19T19:44:36.357Z,0
2016-11-19T19:45:36.043Z,0
2016-11-19T19:46:36.040Z,0
2016-11-19T19:47:36.023Z,0
2016-11-19T19:48:36.026Z,0
2016-11-19T19:49:36.331Z,0
2016-11-19T19:50:36.016Z,0
2016-11-19T19:51:36.003Z,0
2016-11-19T19:52:37.576Z,0
2016-11-19T19:53:36.002Z,0
2016-11-19T19:54:35.986Z,0
2016-11-19T19:55:35.971Z,0
2016-11-19T19:56:35.962Z,0
2016-11-19T19:57:35.957Z,0
2016-11-19T19:58:35.949Z,0
2016-11-19T19:59:35.958Z,0
2016-11-19T20:00:36.186Z,0
2016-11-19T20:01:35.943Z,0
2016-11-19T20:02:35.926Z,0
2016-11-19T20:03:35.918Z,0
2016-11-19T20:04:35.945Z,0
2016-11-19T20:05:36.172Z,0
2016-11-19T20:06:35.921Z,0
2016-11-19T20:07:35.947Z,0
2016-11-19T20:08:35.893Z,0
2016-11-19T20:09:35.882Z,0
2016-11-19T20:10:35.904Z,0
2016-11-19T20:11:35.866Z,0
2016-11-19T20:12:35.870Z,0
2016-11-19T20:13:35.852Z,0
2016-11-19T20:14:35.845Z,0
2016-11-19T20:15:35.852Z,0
2016-11-19T20:16:35.837Z,0
2016-11-19T20:17:35.837Z,0
2016-11-19T20:18:35.824Z,0
2016-11-19T20:19:35.845Z,0
2016-11-19T20:20:35.825Z,0
2016-11-19T20:21:35.805Z,0
2016-11-19T20:22:35.791Z,0
2016-11-19T20:23:35.783Z,0
2016-11-19T20:24:36.104Z,0
2016-11-19T20:25:35.776Z,0
2016-11-19T20:26:35.765Z,0
2016-11-19T20:27:35.757Z,0
2016-11-19T20:28:35.750Z,0
2016-11-19T20:29:35.742Z,0
2016-11-19T20:30:35.731Z,0
2016-11-19T20:31:35.725Z,0
2016-11-19T20:32:35.880Z,0
2016-11-19T20:33:35.743Z,0
2016-11-19T20:34:35.709Z,0
2016-11-19T20:35:35.718Z,0
2016-11-19T20:36:35.725Z,0
2016-11-19T20:37:35.688Z,0
2016-11-19T20:38:35.995Z,0
2016-11-19T20:39:35.990Z,0
2016-11-19T20:40:35.672Z,0
2016-11-19T20:41:35.662Z,0
2016-11-19T20:42:35.905Z,0
2016-11-19T20:43:35.666Z,0
2016-11-19T20:44:35.970Z,0
2016-11-19T20:45:35.952Z,0
2016-11-19T20:46:35.877Z,0
2016-11-19T20:47:36.124Z,0
2016-11-19T20:48:35.616Z,0
2016-11-19T20:49:35.612Z,0
2016-11-19T20:50:35.603Z,0
2016-11-19T20:51:35.593Z,0
2016-11-19T20:52:35.605Z,0
2016-11-19T20:56:51.918Z,0
2016-11-19T20:57:21.952Z,0
2016-11-19T20:58:21.957Z,0
2016-11-19T20:59:21.955Z,0
2016-11-19T21:00:21.925Z,0
2016-11-19T21:01:22.219Z,0
2016-11-19T21:02:21.912Z,0
2016-11-19T21:03:21.959Z,0
2016-11-19T21:04:21.902Z,0
2016-11-19T21:10:14.953Z,0
2016-11-19T21:10:31.438Z,0
2016-11-19T21:11:31.385Z,0
2016-11-19T21:12:31.361Z,0
2016-11-19T21:13:31.366Z,0
2016-11-19T21:14:31.677Z,0
2016-11-19T21:15:31.343Z,0
2016-11-19T21:16:31.333Z,0
2016-11-19T21:17:31.345Z,0
2016-11-19T21:18:31.318Z,0
2016-11-19T21:19:31.316Z,0
2016-11-19T21:20:31.313Z,0
2016-11-19T21:21:31.343Z,0
2016-11-19T21:22:31.305Z,0
2016-11-19T21:23:31.315Z,0
2016-11-19T21:24:31.289Z,0
2016-11-19T21:40:42.688Z,0
2016-11-19T21:41:42.903Z,0
2016-11-19T21:42:57.520Z,0
2016-11-19T21:43:42.621Z,0
2016-11-19T21:51:46.667Z,0
2016-11-19T21:52:23.551Z,0
2016-11-19T21:53:23.552Z,0
2016-11-19T21:54:23.526Z,0
2016-11-19T21:55:23.551Z,0
2016-11-19T21:56:23.512Z,0
2016-11-19T21:57:23.540Z,0
2016-11-19T21:58:23.494Z,0
2016-11-19T21:59:23.802Z,0
2016-11-19T22:00:23.494Z,0
2016-11-19T22:01:23.490Z,0
2016-11-19T22:02:23.469Z,0
2016-11-19T22:03:23.464Z,0
2016-11-19T22:04:23.455Z,0
2016-11-19T22:05:23.461Z,0
2016-11-19T22:06:23.436Z,0
2016-11-19T22:07:23.955Z,0
2016-11-19T22:08:23.422Z,0
2016-11-19T22:09:23.737Z,0
2016-11-19T22:10:23.499Z,0
2016-11-19T22:11:23.406Z,0
2016-11-19T22:12:23.401Z,0
2016-11-19T22:13:23.387Z,0
2016-11-19T22:14:23.389Z,0
2016-11-19T22:15:23.658Z,0
2016-11-19T22:16:23.378Z,0
2016-11-19T22:23:04.600Z,0
2016-11-19T22:28:37.956Z,0
2016-11-19T22:29:05.558Z,0
2016-11-19T22:30:05.549Z,0
2016-11-19T22:31:05.540Z,0
2016-11-19T22:32:05.546Z,0
2016-11-19T22:33:05.536Z,0
2016-11-19T22:34:05.539Z,0
2016-11-19T22:35:05.531Z,0
2016-11-19T22:36:05.512Z,0
2016-11-19T22:37:05.499Z,0
2016-11-19T22:38:05.490Z,0
2016-11-19T22:39:05.512Z,0
2016-11-19T22:40:05.512Z,0
2016-11-19T22:41:05.487Z,0
2016-11-19T22:42:05.474Z,0
2016-11-19T22:43:05.482Z,0
2016-11-19T22:44:05.509Z,0
2016-11-19T22:45:05.490Z,0
2016-11-19T22:46:05.448Z,0
2016-11-19T22:47:05.448Z,0
2016-11-19T22:48:05.436Z,0
2016-11-19T22:49:05.420Z,0
2016-11-19T22:50:05.416Z,0
2016-11-19T22:51:05.407Z,0
2016-11-19T22:52:05.401Z,0
2016-11-19T22:53:05.410Z,0
2016-11-19T22:54:05.399Z,0
2016-11-19T22:55:05.380Z,0
2016-11-19T22:56:05.375Z,0
2016-11-19T22:57:05.361Z,0
2016-11-19T22:58:05.609Z,0
2016-11-19T22:59:05.601Z,0
2016-11-19T23:00:05.354Z,0
2016-11-19T23:01:05.337Z,0
2016-11-19T23:02:05.334Z,0
2016-11-19T23:03:05.320Z,0
2016-11-19T23:04:05.326Z,0
2016-11-19T23:05:05.312Z,0
2016-11-19T23:06:05.300Z,0
2016-11-19T23:07:05.294Z,0
2016-11-19T23:08:05.288Z,0
2016-11-19T23:09:05.286Z,0
2016-11-19T23:10:05.278Z,0
2016-11-19T23:11:05.275Z,0
2016-11-19T23:12:05.276Z,0
2016-11-19T23:13:05.254Z,0
2016-11-19T23:14:05.346Z,0
2016-11-19T23:15:05.290Z,0
2016-11-19T23:16:05.232Z,0
2016-11-19T23:17:05.222Z,0
2016-11-19T23:18:05.226Z,0
2016-11-19T23:19:05.214Z,0
2016-11-19T23:20:05.218Z,0
2016-11-19T23:21:05.518Z,0
2016-11-19T23:22:05.197Z,0
2016-11-19T23:23:05.184Z,0
2016-11-19T23:24:05.175Z,0
2016-11-19T23:25:05.173Z,0
2016-11-19T23:26:05.166Z,0
2016-11-19T23:27:05.151Z,0
2016-11-19T23:28:05.150Z,0
2016-11-19T23:29:05.759Z,0
2016-11-19T23:30:05.144Z,0
2016-11-19T23:31:05.140Z,0
2016-11-19T23:32:05.136Z,0
2016-11-19T23:33:06.355Z,0
2016-11-19T23:34:06.610Z,0
2016-11-19T23:35:05.108Z,0
2016-11-19T23:36:05.097Z,0
2016-11-19T23:37:05.088Z,0
2016-11-19T23:38:05.092Z,0
2016-11-19T23:39:05.073Z,0
2016-11-19T23:40:05.083Z,0
2016-11-19T23:41:05.086Z,0
2016-11-19T23:42:05.074Z,0
2016-11-19T23:43:05.046Z,0
2016-11-19T23:44:05.045Z,0
2016-11-19T23:45:05.279Z,0
2016-11-19T23:46:05.022Z,0
2016-11-19T23:47:05.019Z,0
2016-11-19T23:48:05.018Z,0
2016-11-19T23:49:05.014Z,0
2016-11-19T23:50:05.020Z,0
2016-11-19T23:51:05.039Z,0
2016-11-19T23:52:04.995Z,0
2016-11-19T23:53:04.982Z,0
2016-11-19T23:54:04.998Z,0
2016-11-19T23:55:04.967Z,0
2016-11-19T23:56:04.973Z,0
2016-11-19T23:57:04.952Z,0
2016-11-19T23:58:04.951Z,0
2016-11-19T23:59:04.952Z,0
